Denver, Colorado
Traffic Map
Current Weather Conditions
Denver, Colorado
Broken Clouds
Broken Clouds
82°
Feels Like: 82°
Wind Chill: 82° Ceiling: 11000
Heat Index: 82° Visibility: 10mi
Dew Point: 46° Wind: 12mph
Humidity: 28% Direction: 180° (S)
Pressure: 30.12in Gusts: 17mph
Raw Report DataKBKF 031858Z 18010G15KT 10SM FEW070 BKN110 BKN220 28/08 A3012 RMK AO2A SLP118 T02770078
Traffic Incident Summary
Active as of:
Severity:
Category:
InformationThere was an issue retrieving the traffic information for this location. Please try a different location or try again shortly.
Advertisements
Track Severe Weather on mobile